Antioch, Illinois
Current Conditions -  °F | °C
As of 8:53 AM on Thursday 30 Oct 2014 (Local Time) from KENW Reporting Station
Clear Clear  
Wind Chill:   Ceiling: Unl
Heat Index:   Visibility: 10mi
Dew Point:   Wind: 7mph
Humidity: 89%   Direction: 230°SW
Pressure: 30.13"   Gusts: NA
Location:  42.48°N, 88.1°W
Report Text: KENW 301353Z 23006KT 10SM CLR 04/02 A3013 RMK AO2 SLP209 T00390022
Loading
Personal Weather Stations






























Interactive Weather Map New forecast layout! Learn more

10-Day Weather Forecast

Advertisements
Track Severe Weather on mobile